This is the latest recevied weather packets stored in our database for station/object SQ9PDE-13. If no packets are shown the sender has not sent any weather packets the latest 10 day(s).
| Time | Temp. | Humidity | Pressure | Rain* | Wind** | Luminosity | Snow |
|---|---|---|---|---|---|---|---|
| 1777982106 | 26.67° C | 27% | 1005.5 hPa | - | - | - | - |
| 1777981805 | 26.67° C | 27% | 1005.4 hPa | - | - | - | - |
| 1777981505 | 26.11° C | 26% | 1005.3 hPa | - | - | - | - |
| 1777981204 | 27.22° C | 28% | 1005.5 hPa | - | - | - | - |
| 1777980903 | 27.78° C | 29% | 1005.3 hPa | - | - | - | - |
| 1777980603 | 26.67° C | 29% | 1005.6 hPa | - | - | - | - |
| 1777980302 | 26.67° C | 29% | 1005.6 hPa | - | - | - | - |
| 1777980002 | 26.11° C | 30% | 1005.6 hPa | - | - | - | - |
| 1777979701 | 27.22° C | 31% | 1005.6 hPa | - | - | - | - |
| 1777979401 | 27.22° C | 31% | 1005.7 hPa | - | - | - | - |
| 1777979101 | 27.22° C | 31% | 1005.8 hPa | - | - | - | - |
| 1777978800 | 25° C | 32% | 1006.1 hPa | - | - | - | - |
| 1777978499 | 25° C | 32% | 1006.2 hPa | - | - | - | - |
| 1777978199 | 25.56° C | 31% | 1006.3 hPa | - | - | - | - |
| 1777977898 | 25.56° C | 31% | 1006.3 hPa | - | - | - | - |
| 1777977598 | 26.67° C | 31% | 1006.2 hPa | - | - | - | - |
| 1777977297 | 26.67° C | 31% | 1006.3 hPa | - | - | - | - |
| 1777976997 | 26.11° C | 32% | 1006.3 hPa | - | - | - | - |
| 1777976696 | 26.11° C | 32% | 1006.4 hPa | - | - | - | - |
| 1777976396 | 25° C | 33% | 1006.7 hPa | - | - | - | - |
| 1777976095 | 26.11° C | 32% | 1006.6 hPa | - | - | - | - |
| 1777975795 | 25° C | 33% | 1006.8 hPa | - | - | - | - |
| 1777975494 | 24.44° C | 33% | 1007 hPa | - | - | - | - |
| 1777975194 | 26.11° C | 32% | 1006.8 hPa | - | - | - | - |
| 1777974893 | 25° C | 33% | 1007 hPa | - | - | - | - |
* Rain since midnight (hover to see other rain measurements)
** Current wind speed in m/s (hover to see current wind gust speed)